createdAt,value
2022-11-03T00:02:12.036Z,74.00
2022-11-03T00:04:39.806Z,72.82
2022-11-03T00:07:07.136Z,71.99
2022-11-03T00:09:34.444Z,70.29
2022-11-03T00:12:02.100Z,69.83
2022-11-03T00:14:29.422Z,72.73
2022-11-03T00:16:56.766Z,70.81
2022-11-03T00:19:24.342Z,72.36
2022-11-03T00:21:52.703Z,73.20
2022-11-03T00:24:20.030Z,74.14
2022-11-03T00:26:47.650Z,73.02
2022-11-03T00:29:15.181Z,72.59
2022-11-03T00:31:44.034Z,73.72
2022-11-03T00:34:11.655Z,74.55
2022-11-03T00:36:42.963Z,75.33
2022-11-03T00:39:10.578Z,75.93
2022-11-03T00:41:38.301Z,73.71
2022-11-03T00:44:05.753Z,73.28
2022-11-03T00:46:35.618Z,74.17
2022-11-03T00:49:04.275Z,73.67
2022-11-03T00:51:31.878Z,75.51
2022-11-03T00:54:00.255Z,73.45
2022-11-03T00:56:29.285Z,74.52
2022-11-03T00:58:57.928Z,75.92
2022-11-03T01:01:32.445Z,76.28
2022-11-03T01:04:18.839Z,76.04
2022-11-03T01:06:50.145Z,76.40
2022-11-03T01:09:17.797Z,75.72
2022-11-03T01:11:58.736Z,75.73
2022-11-03T01:14:37.422Z,75.35
2022-11-03T01:17:06.345Z,72.20
2022-11-03T01:19:34.011Z,72.54
2022-11-03T01:22:02.664Z,71.34
2022-11-03T01:24:32.427Z,73.42
2022-11-03T01:27:00.029Z,73.39
2022-11-03T01:29:27.358Z,72.19
2022-11-03T01:31:54.724Z,72.74
2022-11-03T01:34:22.804Z,70.31
2022-11-03T01:36:50.135Z,69.60
2022-11-03T01:39:18.633Z,70.11
2022-11-03T01:41:47.643Z,68.74
2022-11-03T01:44:14.794Z,69.45
2022-11-03T01:47:14.780Z,69.34
2022-11-03T01:50:09.783Z,68.92
2022-11-03T01:52:39.441Z,68.64
2022-11-03T01:55:13.327Z,68.09
2022-11-03T01:57:53.068Z,68.22
2022-11-03T02:00:20.815Z,68.74
2022-11-03T02:02:48.404Z,69.37
2022-11-03T02:05:18.529Z,69.47
2022-11-03T02:07:57.914Z,69.15
2022-11-03T02:10:25.659Z,68.94
2022-11-03T02:12:53.023Z,68.86
2022-11-03T02:15:21.679Z,68.31
2022-11-03T02:17:50.006Z,68.27
2022-11-03T02:20:21.631Z,68.09
2022-11-03T02:23:15.510Z,68.15
2022-11-03T02:25:46.989Z,67.97
2022-11-03T02:28:22.433Z,68.29
2022-11-03T02:30:49.598Z,68.64
2022-11-03T02:33:31.052Z,68.67
2022-11-03T02:36:12.398Z,69.06
2022-11-03T02:38:45.289Z,68.74
2022-11-03T02:41:12.635Z,69.26
2022-11-03T02:43:40.290Z,70.61
2022-11-03T02:46:07.610Z,69.12
2022-11-03T02:48:34.924Z,69.28
2022-11-03T02:51:03.404Z,69.13
2022-11-03T02:53:30.733Z,69.20
2022-11-03T02:56:02.042Z,69.35
2022-11-03T02:58:37.356Z,69.32
2022-11-03T03:01:15.048Z,68.67
2022-11-03T03:03:48.104Z,69.27
2022-11-03T03:06:35.130Z,69.83
2022-11-03T03:09:17.190Z,68.83
2022-11-03T03:11:44.511Z,69.06
2022-11-03T03:14:47.828Z,68.55
2022-11-03T03:17:45.164Z,68.69
2022-11-03T03:20:19.501Z,69.33
2022-11-03T03:22:56.765Z,69.21
2022-11-03T03:25:27.187Z,69.17
2022-11-03T03:27:58.538Z,69.60
2022-11-03T03:30:26.144Z,69.74
2022-11-03T03:32:53.521Z,69.92
2022-11-03T03:35:25.758Z,70.33
2022-11-03T03:37:54.547Z,69.72
2022-11-03T03:40:25.037Z,69.75
2022-11-03T03:42:52.690Z,69.50
2022-11-03T03:45:20.388Z,69.92
2022-11-03T03:47:47.807Z,69.37
2022-11-03T03:50:15.403Z,69.21
2022-11-03T03:52:42.731Z,69.08
2022-11-03T03:55:18.363Z,68.73
2022-11-03T03:57:46.035Z,68.68
2022-11-03T04:00:14.109Z,68.44
2022-11-03T04:02:42.243Z,68.28
2022-11-03T04:05:09.564Z,67.14
2022-11-03T04:07:49.143Z,68.45
2022-11-03T04:10:17.001Z,68.30
2022-11-03T04:13:03.191Z,69.53
2022-11-03T04:15:49.231Z,69.01
2022-11-03T04:18:36.186Z,68.76
2022-11-03T04:21:22.508Z,68.17
2022-11-03T04:23:49.827Z,68.97
2022-11-03T04:26:18.556Z,68.65
2022-11-03T04:28:45.917Z,68.81
2022-11-03T04:31:13.787Z,69.37
2022-11-03T04:33:41.778Z,69.01
2022-11-03T04:36:23.052Z,67.97
2022-11-03T04:38:51.238Z,68.74
2022-11-03T04:41:23.589Z,68.60
2022-11-03T04:43:52.146Z,68.56
2022-11-03T04:46:26.260Z,68.56
2022-11-03T04:48:54.544Z,68.98
2022-11-03T04:51:25.234Z,68.37
2022-11-03T04:53:59.003Z,68.38
2022-11-03T04:56:26.681Z,66.72
2022-11-03T04:58:54.127Z,67.15
2022-11-03T05:01:24.332Z,67.60
2022-11-03T05:03:56.596Z,68.31
2022-11-03T05:06:28.360Z,68.75
2022-11-03T05:08:58.637Z,69.02
2022-11-03T05:11:32.733Z,69.10
2022-11-03T05:14:01.680Z,68.73
2022-11-03T05:16:29.093Z,68.01
2022-11-03T05:18:56.427Z,69.13
2022-11-03T05:21:25.106Z,68.86
2022-11-03T05:24:03.145Z,68.15
2022-11-03T05:26:32.980Z,68.38
2022-11-03T05:29:06.006Z,67.06
2022-11-03T05:31:34.657Z,67.28
2022-11-03T05:34:02.841Z,67.94
2022-11-03T05:36:30.844Z,68.18
2022-11-03T05:39:37.996Z,68.21
2022-11-03T05:42:23.560Z,68.45
2022-11-03T05:44:51.621Z,68.15
2022-11-03T05:47:46.700Z,67.33
2022-11-03T05:50:19.702Z,67.63
2022-11-03T05:52:48.790Z,67.33
2022-11-03T05:55:24.191Z,67.22
2022-11-03T05:57:51.900Z,67.66
2022-11-03T06:00:41.093Z,66.00
2022-11-03T06:03:19.901Z,65.53
2022-11-03T06:05:47.297Z,66.60
2022-11-03T06:08:18.338Z,65.43
2022-11-03T06:10:48.976Z,66.87
2022-11-03T06:13:17.051Z,66.33
2022-11-03T06:15:45.358Z,66.82
2022-11-03T06:18:22.318Z,65.95
2022-11-03T06:20:55.164Z,66.29
2022-11-03T06:23:22.530Z,67.05
2022-11-03T06:25:51.794Z,66.70
2022-11-03T06:28:37.035Z,66.50
2022-11-03T06:31:05.901Z,66.59
2022-11-03T06:33:36.375Z,65.93
2022-11-03T06:36:11.556Z,65.38
2022-11-03T06:38:39.143Z,65.81
2022-11-03T06:41:13.885Z,65.96
2022-11-03T06:43:41.878Z,65.58
2022-11-03T06:46:23.926Z,65.07
2022-11-03T06:49:01.496Z,64.85
2022-11-03T06:51:29.548Z,64.32
2022-11-03T06:54:00.455Z,64.77
2022-11-03T06:56:31.962Z,63.57
2022-11-03T06:58:59.595Z,63.23
2022-11-03T07:01:33.673Z,63.09
2022-11-03T07:04:03.024Z,62.70
2022-11-03T07:06:31.995Z,62.51
2022-11-03T07:08:59.873Z,62.09
2022-11-03T07:11:28.804Z,61.92
2022-11-03T07:13:57.588Z,61.84
2022-11-03T07:16:40.786Z,61.28
2022-11-03T07:19:19.844Z,60.95
2022-11-03T07:21:52.831Z,59.85
2022-11-03T07:24:30.125Z,60.51
2022-11-03T07:27:08.173Z,60.41
2022-11-03T07:29:35.833Z,59.69
2022-11-03T07:32:09.047Z,60.27
2022-11-03T07:34:36.657Z,59.71
2022-11-03T07:37:04.130Z,59.34
2022-11-03T07:39:34.721Z,59.64
2022-11-03T07:42:13.903Z,59.73
2022-11-03T07:44:41.272Z,64.36
2022-11-03T07:47:18.968Z,61.49
2022-11-03T07:49:46.399Z,64.08
2022-11-03T07:52:19.863Z,64.99
2022-11-03T07:54:47.191Z,68.30
2022-11-03T07:57:30.632Z,66.52
2022-11-03T08:00:10.217Z,69.55
2022-11-03T08:02:43.958Z,69.98
2022-11-03T08:05:11.652Z,68.91
2022-11-03T08:07:39.043Z,68.19
2022-11-03T08:10:07.381Z,65.28
2022-11-03T08:12:34.986Z,67.08
2022-11-03T08:15:02.301Z,67.20
2022-11-03T08:17:30.425Z,67.22
2022-11-03T08:19:58.078Z,69.43
2022-11-03T08:22:26.069Z,72.43
2022-11-03T08:24:53.415Z,73.47
2022-11-03T08:27:21.058Z,71.23
2022-11-03T08:29:48.516Z,71.30
2022-11-03T08:32:15.840Z,73.28
2022-11-03T08:34:43.429Z,72.40
2022-11-03T08:37:10.757Z,74.65
2022-11-03T08:39:38.066Z,74.02
2022-11-03T08:42:05.685Z,74.24
2022-11-03T08:44:33.054Z,71.53
2022-11-03T08:47:00.438Z,70.73
2022-11-03T08:49:28.047Z,68.18
2022-11-03T08:51:55.353Z,68.42
2022-11-03T08:54:22.731Z,66.41
2022-11-03T08:56:50.307Z,68.23
2022-11-03T08:59:18.227Z,67.66
2022-11-03T09:01:45.652Z,67.18
2022-11-03T09:04:13.344Z,69.74
2022-11-03T09:06:41.295Z,73.06
2022-11-03T09:11:56.206Z,74.52
2022-11-03T09:14:23.571Z,70.64
2022-11-03T09:16:50.967Z,73.87
2022-11-03T09:19:18.614Z,72.01
2022-11-03T09:21:45.976Z,69.90
2022-11-03T09:24:13.442Z,68.96
2022-11-03T09:26:41.039Z,70.37
2022-11-03T09:29:08.415Z,71.46
2022-11-03T09:31:35.736Z,70.93
2022-11-03T09:34:03.364Z,72.79
2022-11-03T09:36:30.701Z,72.37
2022-11-03T09:38:58.341Z,73.81
2022-11-03T09:41:36.260Z,71.87
2022-11-03T09:44:13.456Z,70.94
2022-11-03T09:46:41.121Z,69.98
2022-11-03T09:49:08.443Z,71.23
2022-11-03T09:51:36.248Z,70.36
2022-11-03T09:54:04.697Z,71.18
2022-11-03T09:56:32.369Z,71.93
2022-11-03T09:59:00.712Z,71.13
2022-11-03T10:01:28.482Z,73.15
2022-11-03T10:04:00.511Z,71.47
2022-11-03T10:06:27.834Z,71.92
2022-11-03T10:08:55.221Z,73.72
2022-11-03T10:11:22.867Z,73.47
2022-11-03T10:13:52.955Z,74.71
2022-11-03T10:16:21.368Z,71.82
2022-11-03T10:18:49.004Z,71.93
2022-11-03T10:21:27.517Z,71.84
2022-11-03T10:23:55.228Z,73.62
2022-11-03T10:26:22.728Z,73.08
2022-11-03T10:29:00.212Z,71.71
2022-11-03T10:31:38.611Z,69.61
2022-11-03T10:34:37.536Z,71.46
2022-11-03T10:37:24.392Z,72.10
2022-11-03T10:39:55.869Z,72.25
2022-11-03T10:42:25.822Z,71.52
2022-11-03T10:45:09.373Z,70.95
2022-11-03T10:47:37.045Z,71.51
2022-11-03T10:50:26.943Z,72.51
2022-11-03T10:52:54.691Z,73.98
2022-11-03T10:55:25.225Z,76.71
2022-11-03T10:57:55.452Z,74.85
2022-11-03T11:00:24.194Z,77.01
2022-11-03T11:02:56.758Z,77.86
2022-11-03T11:05:24.444Z,74.77
2022-11-03T11:07:52.688Z,75.93
2022-11-03T11:10:24.470Z,74.10
2022-11-03T11:13:25.804Z,72.24
2022-11-03T11:16:02.371Z,70.16
2022-11-03T11:18:30.100Z,75.12
2022-11-03T11:21:21.078Z,76.00
2022-11-03T11:23:49.163Z,73.82
2022-11-03T11:26:20.271Z,74.93
2022-11-03T11:29:10.339Z,75.03
2022-11-03T11:31:44.625Z,74.30
2022-11-03T11:34:21.470Z,72.96
2022-11-03T11:36:55.146Z,73.07
2022-11-03T11:39:28.245Z,72.34
2022-11-03T11:42:08.140Z,73.53
2022-11-03T11:44:52.859Z,74.49
2022-11-03T11:47:27.520Z,76.31
2022-11-03T11:50:13.363Z,72.92
2022-11-03T11:52:58.140Z,71.16
2022-11-03T11:55:27.015Z,69.48
2022-11-03T11:57:54.892Z,71.60
2022-11-03T12:00:26.106Z,74.93
2022-11-03T12:02:53.884Z,74.50
2022-11-03T12:05:34.136Z,74.13
2022-11-03T12:08:01.759Z,77.30
2022-11-03T12:10:31.184Z,75.00
2022-11-03T12:12:59.614Z,75.78
2022-11-03T12:15:51.180Z,74.64
2022-11-03T12:18:41.686Z,76.22
2022-11-03T12:21:14.586Z,75.25
2022-11-03T12:23:46.046Z,72.50
2022-11-03T12:26:29.365Z,75.09
2022-11-03T12:28:56.725Z,72.76
2022-11-03T12:31:24.412Z,69.95
2022-11-03T12:33:51.764Z,69.93
2022-11-03T12:36:19.135Z,70.31
2022-11-03T12:38:46.776Z,72.24
2022-11-03T12:41:24.664Z,69.67
2022-11-03T12:43:53.328Z,69.54
2022-11-03T12:46:21.362Z,72.32
2022-11-03T12:48:49.095Z,71.01
2022-11-03T12:51:20.755Z,74.48
2022-11-03T12:53:48.144Z,72.03
2022-11-03T12:56:15.903Z,74.56
2022-11-03T12:58:43.528Z,74.50
2022-11-03T13:01:11.123Z,72.20
2022-11-03T13:03:38.755Z,71.92
2022-11-03T13:06:10.004Z,74.73
2022-11-03T13:08:37.693Z,71.66
2022-11-03T13:11:25.003Z,71.32
2022-11-03T13:13:53.030Z,70.28
2022-11-03T13:16:20.473Z,71.66
2022-11-03T13:18:47.926Z,71.58
2022-11-03T13:21:15.638Z,69.05
2022-11-03T13:23:43.064Z,69.68
2022-11-03T13:26:10.916Z,71.19
2022-11-03T13:28:38.608Z,73.07
2022-11-03T13:31:06.283Z,71.06
2022-11-03T13:33:33.645Z,71.01
2022-11-03T13:36:01.592Z,70.25
2022-11-03T13:38:29.393Z,74.57
2022-11-03T13:41:01.121Z,73.23
2022-11-03T13:43:33.157Z,75.95
2022-11-03T13:46:02.592Z,75.03
2022-11-03T13:51:19.028Z,76.98
2022-11-03T13:59:28.357Z,74.09
2022-11-03T14:04:44.906Z,73.93
2022-11-03T14:07:12.523Z,72.12
2022-11-03T14:09:39.924Z,72.53
2022-11-03T14:12:26.178Z,70.97
2022-11-03T14:14:53.553Z,71.25
2022-11-03T14:17:21.135Z,70.95
2022-11-03T14:19:52.480Z,73.01
2022-11-03T14:22:21.225Z,73.77
2022-11-03T14:24:48.724Z,72.12
2022-11-03T14:27:16.341Z,71.32
2022-11-03T14:29:44.214Z,70.65
2022-11-03T14:32:11.933Z,74.89
2022-11-03T14:34:39.410Z,70.83
2022-11-03T14:37:08.873Z,71.91
2022-11-03T14:39:39.537Z,73.14
2022-11-03T14:42:11.715Z,70.76
2022-11-03T14:44:39.405Z,69.83
2022-11-03T14:47:12.700Z,71.34
2022-11-03T14:49:40.173Z,70.44
2022-11-03T14:52:07.864Z,73.57
2022-11-03T14:54:36.043Z,72.63
2022-11-03T14:57:03.974Z,72.47
2022-11-03T14:59:31.758Z,73.60
2022-11-03T15:01:59.365Z,72.00
2022-11-03T15:04:26.899Z,70.20
2022-11-03T15:06:54.555Z,74.11
2022-11-03T15:09:22.000Z,72.31
2022-11-03T15:11:49.390Z,71.74
2022-11-03T15:14:17.042Z,75.00
2022-11-03T15:16:46.141Z,74.49
2022-11-03T15:19:13.769Z,76.34
2022-11-03T15:21:41.524Z,74.89
2022-11-03T15:26:56.536Z,76.78
2022-11-03T15:29:24.177Z,74.72
2022-11-03T15:31:51.782Z,76.32
2022-11-03T15:34:19.387Z,75.26
2022-11-03T15:36:46.775Z,74.60
2022-11-03T15:39:14.118Z,75.93
2022-11-03T15:41:41.763Z,74.84
2022-11-03T15:44:10.029Z,72.92
2022-11-03T15:46:37.352Z,74.16
2022-11-03T15:49:04.984Z,75.99
2022-11-03T15:51:32.308Z,76.52
2022-11-03T15:53:59.667Z,79.59
2022-11-03T15:56:27.478Z,76.18
2022-11-03T15:58:54.933Z,78.28
2022-11-03T16:01:22.517Z,83.10
2022-11-03T16:03:50.275Z,80.51
2022-11-03T16:06:17.616Z,80.30
2022-11-03T16:08:45.134Z,82.64
2022-11-03T16:11:12.792Z,80.69
2022-11-03T16:13:40.100Z,81.55
2022-11-03T16:16:07.550Z,82.83
2022-11-03T16:18:35.155Z,83.71
2022-11-03T16:21:02.477Z,81.18
2022-11-03T16:23:29.830Z,81.83
2022-11-03T16:25:57.491Z,80.58
2022-11-03T16:28:24.884Z,79.78
2022-11-03T16:30:54.520Z,78.46
2022-11-03T16:33:22.726Z,79.62
2022-11-03T16:35:50.083Z,80.21
2022-11-03T16:38:17.449Z,79.32
2022-11-03T16:40:45.024Z,78.02
2022-11-03T16:43:12.404Z,76.89
2022-11-03T16:45:39.753Z,77.87
2022-11-03T16:48:07.829Z,76.69
2022-11-03T16:50:35.340Z,76.24
2022-11-03T16:53:03.333Z,77.87
2022-11-03T16:55:30.937Z,77.42
2022-11-03T16:57:58.276Z,76.51
2022-11-03T17:00:26.160Z,74.80
2022-11-03T17:02:53.743Z,75.11
2022-11-03T17:05:21.870Z,73.67
2022-11-03T17:07:53.555Z,72.56
2022-11-03T17:10:22.526Z,72.38
2022-11-03T17:12:50.351Z,72.61
2022-11-03T17:15:17.678Z,74.35
2022-11-03T17:17:45.267Z,73.76
2022-11-03T17:20:12.808Z,73.79
2022-11-03T17:22:40.146Z,76.16
2022-11-03T17:25:09.487Z,74.04
2022-11-03T17:27:36.689Z,73.24
2022-11-03T17:30:06.007Z,73.48
2022-11-03T17:32:36.527Z,74.69
2022-11-03T17:35:04.810Z,74.56
2022-11-03T17:37:32.227Z,73.60
2022-11-03T17:39:59.988Z,73.19
2022-11-03T17:42:28.425Z,72.93
2022-11-03T17:44:56.621Z,72.17
2022-11-03T17:47:24.351Z,74.13
2022-11-03T17:49:51.717Z,72.79
2022-11-03T17:52:26.767Z,71.90
2022-11-03T17:54:57.060Z,76.33
2022-11-03T17:57:24.535Z,75.22
2022-11-03T17:59:53.828Z,73.24
2022-11-03T18:02:26.602Z,75.52
2022-11-03T18:05:24.328Z,74.87
2022-11-03T18:07:52.496Z,73.93
2022-11-03T18:10:30.381Z,75.33
2022-11-03T18:13:18.834Z,73.75
2022-11-03T18:15:54.135Z,74.01
2022-11-03T18:18:26.054Z,72.23
2022-11-03T18:20:53.960Z,75.77
2022-11-03T18:23:26.119Z,75.61
2022-11-03T18:25:53.834Z,75.66
2022-11-03T18:28:21.320Z,75.32
2022-11-03T18:30:49.672Z,74.36
2022-11-03T18:33:24.732Z,74.64
2022-11-03T18:35:53.188Z,73.71
2022-11-03T18:38:24.065Z,74.25
2022-11-03T18:40:51.440Z,72.22
2022-11-03T18:43:20.165Z,72.51
2022-11-03T18:45:47.855Z,72.93
2022-11-03T18:48:19.460Z,71.82
2022-11-03T18:50:53.206Z,70.64
2022-11-03T18:53:24.487Z,70.51
2022-11-03T18:55:52.040Z,74.79
2022-11-03T18:58:24.488Z,72.10
2022-11-03T19:00:55.497Z,71.12
2022-11-03T19:03:23.239Z,71.69
2022-11-03T19:05:51.641Z,73.40
2022-11-03T19:08:21.426Z,71.61
2022-11-03T19:10:48.878Z,73.34
2022-11-03T19:13:28.543Z,73.20
2022-11-03T19:15:56.853Z,75.42
2022-11-03T19:18:24.888Z,75.59
2022-11-03T19:20:52.208Z,75.45
2022-11-03T19:23:19.800Z,77.66
2022-11-03T19:25:47.157Z,77.60
2022-11-03T19:28:14.786Z,78.08
2022-11-03T19:30:42.452Z,81.65
2022-11-03T19:33:16.806Z,76.93
2022-11-03T19:35:44.398Z,78.13
2022-11-03T19:38:13.756Z,79.00
2022-11-03T19:41:01.122Z,78.66
2022-11-03T19:43:34.224Z,75.69
2022-11-03T19:46:02.184Z,75.77
2022-11-03T19:48:31.980Z,76.38
2022-11-03T19:50:59.580Z,75.34
2022-11-03T19:53:28.059Z,73.77
2022-11-03T19:55:55.825Z,75.24
2022-11-03T19:58:24.765Z,74.30
2022-11-03T20:00:53.314Z,73.61
2022-11-03T20:03:22.170Z,73.78
2022-11-03T20:05:51.963Z,72.03
2022-11-03T20:08:22.195Z,76.22
2022-11-03T20:10:49.945Z,75.11
2022-11-03T20:13:19.251Z,76.42
2022-11-03T20:15:46.838Z,76.97
2022-11-03T20:18:14.640Z,73.41
2022-11-03T20:20:42.866Z,77.44
2022-11-03T20:23:22.169Z,76.14
2022-11-03T20:25:49.771Z,72.49
2022-11-03T20:28:22.024Z,72.78
2022-11-03T20:30:49.775Z,71.10
2022-11-03T20:33:18.246Z,70.73
2022-11-03T20:35:45.771Z,70.40
2022-11-03T20:38:14.363Z,71.85
2022-11-03T20:40:41.750Z,74.80
2022-11-03T20:43:26.900Z,72.84
2022-11-03T20:45:54.892Z,71.22
2022-11-03T20:48:22.537Z,70.26
2022-11-03T20:50:50.180Z,70.98
2022-11-03T20:53:19.077Z,68.70
2022-11-03T20:55:46.544Z,68.34
2022-11-03T20:58:16.019Z,73.37
2022-11-03T21:00:44.321Z,70.92
2022-11-03T21:03:38.014Z,72.52
2022-11-03T21:06:10.958Z,73.95
2022-11-03T21:08:38.376Z,71.31
2022-11-03T21:11:28.492Z,69.90
2022-11-03T21:13:57.095Z,70.32
2022-11-03T21:16:43.367Z,70.02
2022-11-03T21:19:49.934Z,71.01
2022-11-03T21:22:46.185Z,72.75
2022-11-03T21:25:13.828Z,74.93
2022-11-03T21:27:42.139Z,72.36
2022-11-03T21:30:14.056Z,71.04
2022-11-03T21:32:41.609Z,69.84
2022-11-03T21:35:14.547Z,72.11
2022-11-03T21:37:42.145Z,71.50
2022-11-03T21:40:10.292Z,68.16
2022-11-03T21:42:56.214Z,68.52
2022-11-03T21:45:23.831Z,68.41
2022-11-03T21:48:13.605Z,71.29
2022-11-03T21:50:42.441Z,70.10
2022-11-03T21:53:10.319Z,69.28
2022-11-03T21:55:38.028Z,68.74
2022-11-03T21:58:05.649Z,67.65
2022-11-03T22:00:32.967Z,68.37
2022-11-03T22:03:00.850Z,68.10
2022-11-03T22:05:28.183Z,69.35
2022-11-03T22:07:55.517Z,70.17
2022-11-03T22:10:23.172Z,71.19
2022-11-03T22:12:50.506Z,71.92
2022-11-03T22:15:36.720Z,73.10
2022-11-03T22:18:05.633Z,74.74
2022-11-03T22:20:52.119Z,74.02
2022-11-03T22:23:37.978Z,71.76
2022-11-03T22:26:23.766Z,74.52
2022-11-03T22:29:11.307Z,74.20
2022-11-03T22:31:41.420Z,73.92
2022-11-03T22:34:27.667Z,75.28
2022-11-03T22:36:55.008Z,72.72
2022-11-03T22:39:41.575Z,72.11
2022-11-03T22:42:31.648Z,70.38
2022-11-03T22:45:18.165Z,72.06
2022-11-03T22:47:45.466Z,72.68
2022-11-03T22:50:13.061Z,73.12
2022-11-03T22:52:40.431Z,70.33
2022-11-03T22:55:07.743Z,70.30
2022-11-03T22:57:35.322Z,72.18
2022-11-03T23:00:05.517Z,70.60
2022-11-03T23:02:32.925Z,69.39
2022-11-03T23:05:00.543Z,68.96
2022-11-03T23:07:32.324Z,67.59
2022-11-03T23:10:04.656Z,67.42
2022-11-03T23:12:32.315Z,67.81
2022-11-03T23:15:18.612Z,68.38
2022-11-03T23:18:04.986Z,69.92
2022-11-03T23:20:50.812Z,72.27
2022-11-03T23:23:37.267Z,74.72
2022-11-03T23:26:04.597Z,71.59
2022-11-03T23:28:32.161Z,70.55
2022-11-03T23:30:59.496Z,71.92
2022-11-03T23:33:26.836Z,71.17
2022-11-03T23:35:54.418Z,72.72
2022-11-03T23:38:21.790Z,72.16
2022-11-03T23:40:49.092Z,71.09
2022-11-03T23:43:16.662Z,71.13
2022-11-03T23:46:02.731Z,71.13
2022-11-03T23:48:48.224Z,70.33
2022-11-03T23:51:19.672Z,73.18
2022-11-03T23:53:47.258Z,72.54
2022-11-03T23:56:33.936Z,71.78
2022-11-03T23:59:01.596Z,72.21
